Terminal Aerodrome Forecast
Issued by NWS

Current Version | Previous Version | Graphics & Text | Print | Product List | Glossary On
Versions: 1 2 3 4 5 6 7 8 9 10 11 12 13 14 15 16 17 18 19 20 21
000
FTUS41 KRLX 161700
TAFCKB
TAF
KCKB 161734Z 1618/1718 VRB03KT P6SM FEW019 SCT024 OVC040
     FM161900 33004KT P6SM SCT035
     FM170600 00000KT 6SM BR FEW025
     FM170700 00000KT 2SM BR FEW001
     FM170800 00000KT 1/2SM FG VV001
     FM171300 00000KT 2SM BR SCT002
     FM171400 00000KT P6SM SCT250=

USA.gov is the U.S. government's official web portal to all federal, state and local government web resources and services.